Time;durP1;ratioP1;P1;durP2;ratioP2;P2;SDS_P1;SDS_P2;PMS_P1;PMS_P2;Temp;Humidity;BMP_temperature;BMP_pressure;BME280_temperature;BME280_humidity;BME280_pressure;Samples;Min_cycle;Max_cycle;Signal;HPM_P1;HPM_P2
2024/02/11 00:02:05;;;;;;;8.40;3.23;;;;;;;;;;5094160;28;20204;-92
2024/02/11 00:04:34;;;;;;;6.90;4.03;;;;;;;;;;5094407;28;20200;-92
2024/02/11 00:07:01;;;;;;;15.57;8.90;;;;;;;;;;5094011;28;20603;-93
2024/02/11 00:09:28;;;;;;;15.93;10.60;;;;;;;;;;5093861;28;20220;-92
2024/02/11 00:11:55;;;;;;;11.23;3.80;;;;;;;;;;5094515;28;20257;-93
2024/02/11 00:14:22;;;;;;;19.60;11.07;;;;;;;;;;5094579;28;20212;-93
2024/02/11 00:16:48;;;;;;;5.97;5.00;;;;;;;;;;5107689;28;20200;-93
2024/02/11 00:19:15;;;;;;;7.47;6.73;;;;;;;;;;5083708;28;20209;-93
2024/02/11 00:21:43;;;;;;;10.23;5.10;;;;;;;;;;5077561;28;20201;-92
2024/02/11 00:24:10;;;;;;;17.43;11.97;;;;;;;;;;5094007;28;20204;-93
2024/02/11 00:26:38;;;;;;;10.43;7.47;;;;;;;;;;5093457;28;20200;-92
2024/02/11 00:29:09;;;;;;;17.57;8.53;;;;;;;;;;5093538;28;20263;-93
2024/02/11 00:31:38;;;;;;;9.70;4.90;;;;;;;;;;5093420;28;20707;-92
2024/02/11 00:34:05;;;;;;;4.67;3.63;;;;;;;;;;5105661;28;20210;-92
2024/02/11 00:36:33;;;;;;;7.40;3.27;;;;;;;;;;5107836;28;20207;-92
2024/02/11 00:39:05;;;;;;;4.73;3.03;;;;;;;;;;5093598;28;20212;-92
2024/02/11 00:41:32;;;;;;;8.37;3.57;;;;;;;;;;5093838;28;20281;-92
2024/02/11 00:44:00;;;;;;;9.03;3.20;;;;;;;;;;5106455;28;20203;-92
2024/02/11 00:46:26;;;;;;;10.73;3.53;;;;;;;;;;5080949;28;20213;-90
2024/02/11 00:48:53;;;;;;;9.13;3.50;;;;;;;;;;5092140;28;20231;-92
2024/02/11 00:51:20;;;;;;;5.50;3.30;;;;;;;;;;5081195;28;20223;-92
2024/02/11 00:53:48;;;;;;;5.83;2.80;;;;;;;;;;5094552;28;20239;-92
2024/02/11 00:56:17;;;;;;;5.03;3.20;;;;;;;;;;5105308;28;20218;-92
2024/02/11 00:58:44;;;;;;;8.57;3.40;;;;;;;;;;5082099;28;20210;-92
2024/02/11 01:01:11;;;;;;;8.40;3.50;;;;;;;;;;5104236;28;20226;-93
2024/02/11 01:03:38;;;;;;;13.30;6.17;;;;;;;;;;5090592;28;20208;-91
2024/02/11 01:06:06;;;;;;;9.10;2.57;;;;;;;;;;5082107;28;20200;-91
2024/02/11 01:08:32;;;;;;;8.57;4.33;;;;;;;;;;5092811;28;20225;-92
2024/02/11 01:10:59;;;;;;;7.10;3.17;;;;;;;;;;5093065;28;20211;-91
2024/02/11 01:13:29;;;;;;;3.93;2.60;;;;;;;;;;5089969;28;20216;-93
2024/02/11 01:15:56;;;;;;;9.03;3.73;;;;;;;;;;5073080;28;20217;-91
2024/02/11 01:18:23;;;;;;;10.27;4.27;;;;;;;;;;5089695;28;20197;-92
2024/02/11 01:20:53;;;;;;;3.63;2.93;;;;;;;;;;5092766;28;20592;-93
2024/02/11 01:23:20;;;;;;;10.63;3.33;;;;;;;;;;5092432;28;20204;-92
2024/02/11 01:25:47;;;;;;;16.00;6.60;;;;;;;;;;5092715;28;20208;-91
2024/02/11 01:28:14;;;;;;;8.20;3.43;;;;;;;;;;5088404;28;20221;-92
2024/02/11 01:30:44;;;;;;;8.97;4.17;;;;;;;;;;5084015;28;20212;-93
2024/02/11 01:33:10;;;;;;;4.60;2.90;;;;;;;;;;5079435;28;20228;-93
2024/02/11 01:35:39;;;;;;;4.90;3.27;;;;;;;;;;5092535;28;20212;-93
2024/02/11 01:38:07;;;;;;;10.63;3.57;;;;;;;;;;5091973;28;20211;-92
2024/02/11 01:40:33;;;;;;;9.20;4.03;;;;;;;;;;5092919;28;20198;-91
2024/02/11 01:43:07;;;;;;;5.83;3.17;;;;;;;;;;5093201;28;20220;-93
2024/02/11 01:45:35;;;;;;;8.27;3.10;;;;;;;;;;5092678;28;20208;-92
2024/02/11 01:48:05;;;;;;;7.13;3.53;;;;;;;;;;5092697;28;20235;-93
2024/02/11 01:50:33;;;;;;;4.87;2.80;;;;;;;;;;5092362;28;20204;-92
2024/02/11 01:53:00;;;;;;;3.00;2.70;;;;;;;;;;5092830;28;20208;-92
2024/02/11 01:55:27;;;;;;;8.43;4.33;;;;;;;;;;5092230;28;20670;-91
2024/02/11 01:57:54;;;;;;;8.93;3.90;;;;;;;;;;5092560;28;20623;-92
2024/02/11 02:00:21;;;;;;;8.50;3.37;;;;;;;;;;5092260;28;20261;-92
2024/02/11 02:02:48;;;;;;;7.73;4.17;;;;;;;;;;5092111;28;20204;-93
2024/02/11 02:05:17;;;;;;;6.40;2.70;;;;;;;;;;5092436;28;20212;-93
2024/02/11 02:07:43;;;;;;;9.23;3.27;;;;;;;;;;5092043;28;20214;-92
2024/02/11 02:10:10;;;;;;;9.07;3.60;;;;;;;;;;5105308;28;20685;-92
2024/02/11 02:12:38;;;;;;;13.67;5.87;;;;;;;;;;5082239;28;20282;-93
2024/02/11 02:15:07;;;;;;;6.37;3.50;;;;;;;;;;5088889;28;20200;-92
2024/02/11 02:17:35;;;;;;;10.07;3.57;;;;;;;;;;5103447;28;20210;-92
2024/02/11 02:20:02;;;;;;;10.30;4.63;;;;;;;;;;5103911;28;20242;-92
2024/02/11 02:22:31;;;;;;;9.50;3.87;;;;;;;;;;5082736;28;20210;-92
2024/02/11 02:24:57;;;;;;;10.60;4.40;;;;;;;;;;5074371;28;20244;-93
2024/02/11 02:27:24;;;;;;;9.00;3.23;;;;;;;;;;5083469;28;20273;-92
2024/02/11 02:29:54;;;;;;;9.50;4.43;;;;;;;;;;5096371;28;20223;-93
2024/02/11 02:32:21;;;;;;;4.87;2.70;;;;;;;;;;5100628;28;20240;-91
2024/02/11 02:34:50;;;;;;;4.80;3.03;;;;;;;;;;5097413;28;20641;-91
2024/02/11 02:37:16;;;;;;;11.83;3.73;;;;;;;;;;5086713;28;20204;-93
2024/02/11 02:39:45;;;;;;;7.20;3.13;;;;;;;;;;5091447;28;20204;-93
2024/02/11 02:42:12;;;;;;;10.73;3.83;;;;;;;;;;5091822;28;20743;-93
2024/02/11 02:44:39;;;;;;;7.63;3.27;;;;;;;;;;5105766;28;20204;-92
2024/02/11 02:47:06;;;;;;;10.77;4.03;;;;;;;;;;5079747;28;20209;-93
2024/02/11 02:49:34;;;;;;;5.97;4.40;;;;;;;;;;5095195;28;20220;-93
2024/02/11 02:52:02;;;;;;;6.47;3.53;;;;;;;;;;5096146;28;20235;-93
2024/02/11 02:54:29;;;;;;;5.50;3.43;;;;;;;;;;5081981;28;20208;-93
2024/02/11 02:56:58;;;;;;;11.90;4.10;;;;;;;;;;5095651;28;20212;-92
2024/02/11 02:59:25;;;;;;;8.37;3.80;;;;;;;;;;5095174;28;20667;-92
2024/02/11 03:01:56;;;;;;;8.30;4.07;;;;;;;;;;5095616;28;20200;-93
2024/02/11 03:04:23;;;;;;;6.17;3.77;;;;;;;;;;5095506;28;20213;-93
2024/02/11 03:06:50;;;;;;;9.03;4.13;;;;;;;;;;5079797;28;20213;-93
2024/02/11 03:09:16;;;;;;;5.30;3.03;;;;;;;;;;5083643;28;20316;-93
2024/02/11 03:11:43;;;;;;;7.40;3.33;;;;;;;;;;5095602;28;20637;-92
2024/02/11 03:14:12;;;;;;;7.47;3.80;;;;;;;;;;5086383;28;20209;-93
2024/02/11 03:16:40;;;;;;;7.10;4.23;;;;;;;;;;5091286;28;20278;-93
2024/02/11 03:19:07;;;;;;;12.07;3.70;;;;;;;;;;5095154;28;20208;-93
2024/02/11 03:21:34;;;;;;;12.13;4.33;;;;;;;;;;5092172;28;20202;-93
2024/02/11 03:24:04;;;;;;;12.80;5.80;;;;;;;;;;5074876;28;20213;-93
2024/02/11 03:26:30;;;;;;;15.30;4.57;;;;;;;;;;5082926;28;20295;-93
2024/02/11 03:28:57;;;;;;;8.60;3.83;;;;;;;;;;5093630;28;20225;-93
2024/02/11 03:31:27;;;;;;;11.20;6.13;;;;;;;;;;5095195;28;20203;-93
2024/02/11 03:33:53;;;;;;;6.97;4.53;;;;;;;;;;5104283;28;20210;-93
2024/02/11 03:36:20;;;;;;;10.63;5.30;;;;;;;;;;5094196;28;20274;-93
2024/02/11 03:38:47;;;;;;;6.33;3.70;;;;;;;;;;5094449;28;20211;-92
2024/02/11 03:41:14;;;;;;;18.73;10.47;;;;;;;;;;5103963;28;20197;-93
2024/02/11 03:43:41;;;;;;;20.70;6.37;;;;;;;;;;5085588;28;20204;-92
2024/02/11 03:46:08;;;;;;;9.67;4.40;;;;;;;;;;5094589;28;20216;-93
2024/02/11 03:48:36;;;;;;;8.30;3.90;;;;;;;;;;5094721;28;20208;-93
2024/02/11 03:51:03;;;;;;;14.87;8.17;;;;;;;;;;5094062;28;20204;-92
2024/02/11 03:53:30;;;;;;;167.53;114.40;;;;;;;;;;5107105;28;20196;-93
2024/02/11 03:55:57;;;;;;;15.80;10.00;;;;;;;;;;5101285;28;20287;-93
2024/02/11 03:58:24;;;;;;;11.83;5.87;;;;;;;;;;5114828;28;20272;-93
2024/02/11 04:00:51;;;;;;;17.77;4.60;;;;;;;;;;5093950;28;20230;-93
2024/02/11 04:03:18;;;;;;;7.60;4.63;;;;;;;;;;5094114;28;20203;-93
2024/02/11 04:05:48;;;;;;;11.60;4.43;;;;;;;;;;5108142;28;20196;-92
2024/02/11 04:08:15;;;;;;;11.40;7.80;;;;;;;;;;5094112;28;20690;-93
2024/02/11 04:10:42;;;;;;;16.30;7.63;;;;;;;;;;5093882;28;20285;-93
2024/02/11 04:13:09;;;;;;;13.70;5.60;;;;;;;;;;5093599;28;20231;-92
2024/02/11 04:15:37;;;;;;;15.50;6.20;;;;;;;;;;5082095;28;20212;-92
2024/02/11 04:18:10;;;;;;;7.97;4.50;;;;;;;;;;5092928;28;20294;-93
2024/02/11 04:20:37;;;;;;;22.70;9.60;;;;;;;;;;5074142;28;20266;-93
2024/02/11 04:23:07;;;;;;;11.57;4.60;;;;;;;;;;5074203;28;20213;-93
2024/02/11 04:25:36;;;;;;;15.00;4.90;;;;;;;;;;5093233;28;20281;-93
2024/02/11 04:28:07;;;;;;;15.67;5.23;;;;;;;;;;5097034;28;20200;-93
2024/02/11 04:30:37;;;;;;;6.37;4.30;;;;;;;;;;5104356;28;20293;-92
2024/02/11 04:33:07;;;;;;;9.27;4.30;;;;;;;;;;5105433;28;20240;-92
2024/02/11 04:35:35;;;;;;;8.17;4.20;;;;;;;;;;5073683;28;20583;-93
2024/02/11 04:38:08;;;;;;;7.90;4.17;;;;;;;;;;5091835;28;20209;-93
2024/02/11 04:40:36;;;;;;;10.40;3.80;;;;;;;;;;5093521;28;20299;-92
2024/02/11 04:43:03;;;;;;;14.27;5.87;;;;;;;;;;5099040;28;20198;-93
2024/02/11 04:45:30;;;;;;;5.60;4.60;;;;;;;;;;5087782;28;20205;-92
2024/02/11 04:47:59;;;;;;;7.60;3.57;;;;;;;;;;5086544;28;20211;-93
2024/02/11 04:50:26;;;;;;;7.13;3.77;;;;;;;;;;5073107;28;20773;-93
2024/02/11 04:52:55;;;;;;;6.83;3.67;;;;;;;;;;5093478;28;20208;-93
2024/02/11 04:55:24;;;;;;;12.80;4.40;;;;;;;;;;5079586;28;20278;-93
2024/02/11 04:57:53;;;;;;;14.97;5.40;;;;;;;;;;5101222;28;20194;-90
2024/02/11 05:00:26;;;;;;;9.30;5.57;;;;;;;;;;5083162;28;20205;-91
2024/02/11 05:02:54;;;;;;;11.93;4.37;;;;;;;;;;5082870;28;20207;-91
2024/02/11 05:05:25;;;;;;;11.07;3.80;;;;;;;;;;5093065;28;20207;-91
2024/02/11 05:07:52;;;;;;;11.70;4.53;;;;;;;;;;5093135;28;20258;-94
2024/02/11 05:10:21;;;;;;;11.57;5.90;;;;;;;;;;5092451;28;20288;-94
2024/02/11 05:12:49;;;;;;;8.03;4.23;;;;;;;;;;5104347;28;20201;-92
2024/02/11 05:15:20;;;;;;;7.73;4.50;;;;;;;;;;5094318;28;20204;-91
2024/02/11 05:17:48;;;;;;;7.67;3.07;;;;;;;;;;5093009;28;20677;-90
2024/02/11 05:20:21;;;;;;;10.83;4.40;;;;;;;;;;5092410;28;20697;-91
2024/02/11 05:22:48;;;;;;;6.23;3.47;;;;;;;;;;5092951;28;20234;-91
2024/02/11 05:25:19;;;;;;;9.33;3.33;;;;;;;;;;5086061;28;20223;-91
2024/02/11 05:27:49;;;;;;;12.30;3.87;;;;;;;;;;5086413;28;20211;-90
2024/02/11 05:30:17;;;;;;;11.20;4.93;;;;;;;;;;5090210;28;20594;-91
2024/02/11 05:32:45;;;;;;;8.50;4.20;;;;;;;;;;5097494;28;20231;-90
2024/02/11 05:35:13;;;;;;;8.33;3.37;;;;;;;;;;5092435;28;20208;-91
2024/02/11 05:37:41;;;;;;;8.10;3.30;;;;;;;;;;5078981;28;20200;-90
2024/02/11 05:40:10;;;;;;;11.57;5.00;;;;;;;;;;5092578;28;20214;-91
2024/02/11 05:42:39;;;;;;;11.67;4.07;;;;;;;;;;5103695;28;20201;-91
2024/02/11 05:45:07;;;;;;;8.03;3.73;;;;;;;;;;5082223;28;20200;-91
2024/02/11 05:47:36;;;;;;;5.70;3.17;;;;;;;;;;5092425;28;20192;-90
2024/02/11 05:50:06;;;;;;;8.50;4.23;;;;;;;;;;5092191;28;20706;-91
2024/02/11 05:52:33;;;;;;;9.63;3.67;;;;;;;;;;5092495;28;20266;-90
2024/02/11 05:55:00;;;;;;;10.67;3.67;;;;;;;;;;5081497;28;20266;-90
2024/02/11 05:57:28;;;;;;;10.80;3.97;;;;;;;;;;5076649;28;20228;-90
2024/02/11 05:59:55;;;;;;;11.63;3.67;;;;;;;;;;5092489;28;20208;-90
2024/02/11 06:02:22;;;;;;;7.80;3.17;;;;;;;;;;5092543;28;20624;-89
2024/02/11 06:04:52;;;;;;;7.87;3.83;;;;;;;;;;5092642;28;20196;-89
2024/02/11 06:07:19;;;;;;;8.67;4.03;;;;;;;;;;5092549;28;20208;-91
2024/02/11 06:09:46;;;;;;;10.77;3.47;;;;;;;;;;5092366;28;20220;-90
2024/02/11 06:12:14;;;;;;;12.53;3.70;;;;;;;;;;5086427;28;20299;-90
2024/02/11 06:14:41;;;;;;;8.67;3.67;;;;;;;;;;5072145;28;20212;-90
2024/02/11 06:17:08;;;;;;;8.07;2.73;;;;;;;;;;5112288;28;20210;-91
2024/02/11 06:19:39;;;;;;;11.60;3.50;;;;;;;;;;5098893;28;20212;-90
2024/02/11 06:22:08;;;;;;;13.57;3.57;;;;;;;;;;5092856;28;20686;-91
2024/02/11 06:24:35;;;;;;;8.27;3.20;;;;;;;;;;5096658;28;20225;-90
2024/02/11 06:27:02;;;;;;;13.53;5.73;;;;;;;;;;5088076;28;20793;-90
2024/02/11 06:29:29;;;;;;;11.10;3.93;;;;;;;;;;5091033;28;20236;-91
2024/02/11 06:31:58;;;;;;;15.53;3.60;;;;;;;;;;5095605;28;20239;-90
2024/02/11 06:34:26;;;;;;;10.57;4.30;;;;;;;;;;5095973;28;20276;-90
2024/02/11 06:36:53;;;;;;;7.27;3.80;;;;;;;;;;5095784;28;20280;-91
2024/02/11 06:39:24;;;;;;;8.80;3.37;;;;;;;;;;5110463;28;20229;-90
2024/02/11 06:41:53;;;;;;;16.00;6.07;;;;;;;;;;5096024;28;20204;-90
2024/02/11 06:44:26;;;;;;;10.17;4.10;;;;;;;;;;5092591;28;20215;-91
2024/02/11 06:46:55;;;;;;;9.47;3.50;;;;;;;;;;5076091;28;20217;-91
2024/02/11 06:49:23;;;;;;;13.97;6.10;;;;;;;;;;5080392;28;20212;-90
2024/02/11 06:51:51;;;;;;;19.87;6.07;;;;;;;;;;5084128;28;20267;-91
2024/02/11 06:54:18;;;;;;;8.10;5.03;;;;;;;;;;5075505;28;20204;-90
2024/02/11 06:56:47;;;;;;;5.70;2.80;;;;;;;;;;5088377;28;20230;-89
2024/02/11 06:59:14;;;;;;;11.53;3.63;;;;;;;;;;5109439;28;20582;-89
2024/02/11 07:01:42;;;;;;;6.97;3.17;;;;;;;;;;5095720;28;20200;-91
2024/02/11 07:04:12;;;;;;;10.73;4.97;;;;;;;;;;5082082;28;20210;-91
2024/02/11 07:06:44;;;;;;;4.83;3.10;;;;;;;;;;5095544;28;20215;-89
2024/02/11 07:09:11;;;;;;;14.93;9.30;;;;;;;;;;5095600;28;20232;-91
2024/02/11 07:11:38;;;;;;;14.10;8.47;;;;;;;;;;5081843;28;20231;-91
2024/02/11 07:14:07;;;;;;;8.83;4.83;;;;;;;;;;5095326;28;20234;-91
2024/02/11 07:16:34;;;;;;;7.77;4.07;;;;;;;;;;5095174;28;20250;-91
2024/02/11 07:19:03;;;;;;;9.13;5.60;;;;;;;;;;5094788;28;20216;-90
2024/02/11 07:21:30;;;;;;;13.20;4.07;;;;;;;;;;5095328;28;20319;-91
2024/02/11 07:23:58;;;;;;;11.47;4.70;;;;;;;;;;5095388;28;20200;-90
2024/02/11 07:26:25;;;;;;;7.80;4.63;;;;;;;;;;5083800;28;20200;-91
2024/02/11 07:28:53;;;;;;;8.77;5.37;;;;;;;;;;5105218;28;20212;-91
2024/02/11 07:31:21;;;;;;;10.17;4.80;;;;;;;;;;5090624;28;20316;-91
2024/02/11 07:33:49;;;;;;;9.23;4.93;;;;;;;;;;5084650;28;20207;-91
2024/02/11 07:36:16;;;;;;;9.67;4.00;;;;;;;;;;5094953;28;20201;-91
2024/02/11 07:38:43;;;;;;;11.23;4.70;;;;;;;;;;5094655;28;20212;-92
2024/02/11 07:41:11;;;;;;;10.83;4.33;;;;;;;;;;5094208;28;20631;-92
2024/02/11 07:43:38;;;;;;;6.30;3.77;;;;;;;;;;5094871;28;20212;-92
2024/02/11 07:46:05;;;;;;;11.43;4.30;;;;;;;;;;5094403;28;20295;-91
2024/02/11 07:48:33;;;;;;;13.60;4.03;;;;;;;;;;5106280;28;20259;-91
2024/02/11 07:51:00;;;;;;;6.33;3.90;;;;;;;;;;5078114;28;20229;-91
2024/02/11 07:53:27;;;;;;;4.57;2.93;;;;;;;;;;5087472;28;20208;-91
2024/02/11 07:55:54;;;;;;;10.70;3.33;;;;;;;;;;5095070;28;20203;-91
2024/02/11 07:58:21;;;;;;;8.80;3.87;;;;;;;;;;5094796;28;20208;-91
2024/02/11 08:00:48;;;;;;;12.83;4.53;;;;;;;;;;5094592;28;20246;-92
2024/02/11 08:03:14;;;;;;;14.03;4.47;;;;;;;;;;5094992;28;20222;-92
2024/02/11 08:05:44;;;;;;;12.87;3.90;;;;;;;;;;5094223;28;20208;-92
2024/02/11 08:08:11;;;;;;;9.83;3.73;;;;;;;;;;5107258;28;20559;-92
2024/02/11 08:10:38;;;;;;;22.17;14.30;;;;;;;;;;5094494;28;20287;-92
2024/02/11 08:13:07;;;;;;;10.33;4.53;;;;;;;;;;5094281;28;20258;-92
2024/02/11 08:15:35;;;;;;;15.10;5.40;;;;;;;;;;5094263;28;20208;-91
2024/02/11 08:18:04;;;;;;;10.03;3.73;;;;;;;;;;5093723;28;20204;-91
2024/02/11 08:20:33;;;;;;;17.10;9.77;;;;;;;;;;5081754;28;20667;-92
2024/02/11 08:23:01;;;;;;;25.20;15.90;;;;;;;;;;5093684;28;20268;-92
2024/02/11 08:25:28;;;;;;;8.37;4.30;;;;;;;;;;5094449;28;20208;-92
2024/02/11 08:27:56;;;;;;;14.47;5.93;;;;;;;;;;5092698;28;20201;-92
2024/02/11 08:30:24;;;;;;;13.80;4.27;;;;;;;;;;5073491;28;20247;-92
2024/02/11 08:32:51;;;;;;;6.30;3.03;;;;;;;;;;5104709;28;20223;-91
2024/02/11 08:35:20;;;;;;;8.43;3.90;;;;;;;;;;5105410;28;20227;-91
2024/02/11 08:37:47;;;;;;;10.47;4.13;;;;;;;;;;5081495;28;20216;-92
2024/02/11 08:40:15;;;;;;;8.73;3.80;;;;;;;;;;5094609;28;20212;-92
2024/02/11 08:42:42;;;;;;;9.67;4.40;;;;;;;;;;5093196;28;20661;-92
2024/02/11 08:45:11;;;;;;;11.17;4.97;;;;;;;;;;5093638;28;20208;-91
2024/02/11 08:47:38;;;;;;;20.30;11.80;;;;;;;;;;5102898;28;20204;-92
2024/02/11 08:50:06;;;;;;;31.37;17.40;;;;;;;;;;5072990;28;20261;-92
2024/02/11 08:52:33;;;;;;;22.17;14.93;;;;;;;;;;5104412;28;20223;-92
2024/02/11 08:54:59;;;;;;;15.03;9.63;;;;;;;;;;5093202;28;20638;-92
2024/02/11 08:57:29;;;;;;;32.87;16.50;;;;;;;;;;5093170;28;20265;-92
2024/02/11 08:59:56;;;;;;;37.53;20.77;;;;;;;;;;5093332;28;20199;-93
2024/02/11 09:02:25;;;;;;;12.73;6.33;;;;;;;;;;5088429;28;20201;-91
2024/02/11 09:04:52;;;;;;;12.80;7.10;;;;;;;;;;5073209;28;20213;-92
2024/02/11 09:07:22;;;;;;;15.37;9.60;;;;;;;;;;5086445;28;20276;-91
2024/02/11 09:09:49;;;;;;;15.67;7.63;;;;;;;;;;5086304;28;20218;-91
2024/02/11 09:12:16;;;;;;;28.40;12.00;;;;;;;;;;5093218;28;20258;-92
2024/02/11 09:14:44;;;;;;;9.77;5.30;;;;;;;;;;5092048;28;20724;-93
2024/02/11 09:17:11;;;;;;;10.43;4.63;;;;;;;;;;5080214;28;20204;-92
2024/02/11 09:19:38;;;;;;;10.07;4.73;;;;;;;;;;5092526;28;20219;-92
2024/02/11 09:22:07;;;;;;;16.97;7.50;;;;;;;;;;5074316;28;20208;-92
2024/02/11 09:24:34;;;;;;;23.83;10.67;;;;;;;;;;5087972;28;20214;-92
2024/02/11 09:27:02;;;;;;;21.77;8.40;;;;;;;;;;5082852;28;20200;-91
2024/02/11 09:29:29;;;;;;;16.50;8.77;;;;;;;;;;5097933;28;20211;-92
2024/02/11 09:31:58;;;;;;;22.80;10.60;;;;;;;;;;5092479;28;20267;-91
2024/02/11 09:34:25;;;;;;;11.90;3.60;;;;;;;;;;5092698;28;20211;-93
2024/02/11 09:36:53;;;;;;;8.63;2.90;;;;;;;;;;5093176;28;20201;-92
2024/02/11 09:39:21;;;;;;;5.17;3.27;;;;;;;;;;5105713;28;20207;-93
2024/02/11 09:41:48;;;;;;;7.67;3.83;;;;;;;;;;5075200;28;20208;-94
2024/02/11 09:44:22;;;;;;;9.67;3.47;;;;;;;;;;5075133;28;20199;-92
2024/02/11 09:46:53;;;;;;;10.60;3.30;;;;;;;;;;5065114;28;20224;-93
2024/02/11 09:49:25;;;;;;;7.37;2.83;;;;;;;;;;5072325;28;20703;-92
2024/02/11 09:51:57;;;;;;;4.67;2.83;;;;;;;;;;5081758;28;20229;-93
2024/02/11 09:54:27;;;;;;;8.47;3.83;;;;;;;;;;5091718;28;20200;-92
2024/02/11 09:56:54;;;;;;;6.13;3.23;;;;;;;;;;5104665;28;20207;-92
2024/02/11 09:59:26;;;;;;;5.60;2.67;;;;;;;;;;5054549;28;20200;-90
2024/02/11 10:01:54;;;;;;;7.47;2.97;;;;;;;;;;5081728;28;20203;-92
2024/02/11 10:04:25;;;;;;;8.00;3.27;;;;;;;;;;5043177;28;20258;-91
2024/02/11 10:06:53;;;;;;;9.07;4.87;;;;;;;;;;5092141;28;20207;-94
2024/02/11 10:09:22;;;;;;;11.67;3.77;;;;;;;;;;5087951;28;20235;-92
2024/02/11 10:11:50;;;;;;;3.17;2.23;;;;;;;;;;5074544;28;20710;-92
2024/02/11 10:14:17;;;;;;;7.83;3.10;;;;;;;;;;5063601;28;20236;-92
2024/02/11 10:16:44;;;;;;;3.60;2.33;;;;;;;;;;5085412;28;20717;-90
2024/02/11 10:19:11;;;;;;;6.53;3.53;;;;;;;;;;5074134;28;20212;-91
2024/02/11 10:21:41;;;;;;;7.13;3.70;;;;;;;;;;5057566;28;20597;-90
2024/02/11 10:24:09;;;;;;;5.27;3.40;;;;;;;;;;5092244;28;20289;-90
2024/02/11 10:26:36;;;;;;;9.63;3.60;;;;;;;;;;5091726;28;20208;-91
2024/02/11 10:29:04;;;;;;;9.27;4.47;;;;;;;;;;5048975;28;20646;-91
2024/02/11 10:31:31;;;;;;;5.50;2.30;;;;;;;;;;5087284;28;20754;-90
2024/02/11 10:33:59;;;;;;;11.20;3.30;;;;;;;;;;5065054;28;20211;-89
2024/02/11 10:36:26;;;;;;;8.03;3.47;;;;;;;;;;5084250;28;20215;-90
2024/02/11 10:38:56;;;;;;;12.30;4.77;;;;;;;;;;5071645;28;20713;-90
2024/02/11 10:41:23;;;;;;;7.57;3.20;;;;;;;;;;5085267;28;20200;-91
2024/02/11 10:43:51;;;;;;;3.90;2.03;;;;;;;;;;5083923;28;20287;-90
2024/02/11 10:46:20;;;;;;;6.93;2.47;;;;;;;;;;5073436;28;20269;-91
2024/02/11 10:48:48;;;;;;;7.80;3.20;;;;;;;;;;5089177;28;20210;-90
2024/02/11 10:51:23;;;;;;;6.57;3.13;;;;;;;;;;5021586;28;20264;-91
2024/02/11 10:53:57;;;;;;;6.83;3.50;;;;;;;;;;5079097;28;20254;-94
2024/02/11 10:56:26;;;;;;;10.80;4.03;;;;;;;;;;5080579;28;20209;-91
2024/02/11 10:58:59;;;;;;;7.93;4.10;;;;;;;;;;5071996;28;20299;-93
2024/02/11 11:01:27;;;;;;;10.73;5.80;;;;;;;;;;5078394;28;20227;-92
2024/02/11 11:03:55;;;;;;;6.60;4.60;;;;;;;;;;5094624;28;20237;-89
2024/02/11 11:06:24;;;;;;;8.57;3.70;;;;;;;;;;5100443;28;20211;-92
2024/02/11 11:08:52;;;;;;;7.60;2.83;;;;;;;;;;5073772;28;20197;-93
2024/02/11 11:11:27;;;;;;;6.27;2.70;;;;;;;;;;5078021;28;20231;-93
2024/02/11 11:13:56;;;;;;;7.30;3.37;;;;;;;;;;5083977;28;20235;-93
2024/02/11 11:16:28;;;;;;;5.17;2.87;;;;;;;;;;5094887;28;20693;-90
2024/02/11 11:18:55;;;;;;;6.77;3.23;;;;;;;;;;5071531;28;20200;-91
2024/02/11 11:21:22;;;;;;;5.30;2.37;;;;;;;;;;5094499;28;20213;-92
2024/02/11 11:23:49;;;;;;;7.77;2.30;;;;;;;;;;5069707;28;20208;-91
2024/02/11 11:26:20;;;;;;;3.77;2.10;;;;;;;;;;5071574;28;20249;-92
2024/02/11 11:28:49;;;;;;;4.73;2.53;;;;;;;;;;5094905;28;20235;-92
2024/02/11 11:31:16;;;;;;;7.00;2.60;;;;;;;;;;5094631;28;20210;-93
2024/02/11 11:33:44;;;;;;;8.43;2.30;;;;;;;;;;5074180;28;20206;-91
2024/02/11 11:36:11;;;;;;;2.80;1.70;;;;;;;;;;5076311;28;20213;-92
2024/02/11 11:38:38;;;;;;;2.90;2.03;;;;;;;;;;5076774;28;20212;-92
2024/02/11 11:41:07;;;;;;;11.10;6.30;;;;;;;;;;5060690;28;20205;-94
2024/02/11 11:43:34;;;;;;;6.03;4.40;;;;;;;;;;5087292;28;20211;-94
2024/02/11 11:46:04;;;;;;;6.10;3.43;;;;;;;;;;5066587;28;20206;-94
2024/02/11 11:48:32;;;;;;;5.63;2.40;;;;;;;;;;5094530;28;20294;-94
2024/02/11 11:50:59;;;;;;;7.53;6.70;;;;;;;;;;5072278;28;20681;-93
2024/02/11 11:53:27;;;;;;;9.40;3.33;;;;;;;;;;5094193;28;20236;-94
2024/02/11 11:55:56;;;;;;;4.43;2.77;;;;;;;;;;5046595;28;20224;-92
2024/02/11 11:58:24;;;;;;;7.80;2.50;;;;;;;;;;5102816;28;20254;-93
2024/02/11 12:01:03;;;;;;;6.33;3.20;;;;;;;;;;5076032;28;20204;-94
2024/02/11 12:03:31;;;;;;;6.70;2.47;;;;;;;;;;5094064;28;20203;-95
2024/02/11 12:05:59;;;;;;;7.37;4.10;;;;;;;;;;5094138;28;20609;-94
2024/02/11 12:08:26;;;;;;;8.87;4.23;;;;;;;;;;5093669;28;20635;-93
2024/02/11 12:10:57;;;;;;;5.97;2.73;;;;;;;;;;5094032;28;20211;-94
2024/02/11 12:13:26;;;;;;;8.83;4.23;;;;;;;;;;5093939;28;20247;-93
2024/02/11 12:15:54;;;;;;;3.83;2.20;;;;;;;;;;5093912;28;20212;-93
2024/02/11 12:18:23;;;;;;;9.23;3.23;;;;;;;;;;5075140;28;20279;-94
2024/02/11 12:20:50;;;;;;;8.30;3.73;;;;;;;;;;5090742;28;20201;-93
2024/02/11 12:23:17;;;;;;;7.87;3.43;;;;;;;;;;5039519;28;20209;-93
2024/02/11 12:25:44;;;;;;;4.67;2.37;;;;;;;;;;5059632;28;20294;-93
2024/02/11 12:28:16;;;;;;;5.90;3.43;;;;;;;;;;5065074;28;20220;-94
2024/02/11 12:30:46;;;;;;;6.17;4.30;;;;;;;;;;5069055;28;20201;-94
2024/02/11 12:33:14;;;;;;;14.43;7.47;;;;;;;;;;5088767;28;20268;-94
2024/02/11 12:35:43;;;;;;;14.43;9.37;;;;;;;;;;5093911;28;20755;-94
2024/02/11 12:38:10;;;;;;;6.20;2.87;;;;;;;;;;5105569;28;20204;-93
2024/02/11 12:40:38;;;;;;;10.70;3.27;;;;;;;;;;5084919;28;20845;-94
2024/02/11 12:43:09;;;;;;;12.13;3.43;;;;;;;;;;5055868;28;21141;-93
2024/02/11 12:45:37;;;;;;;10.77;3.27;;;;;;;;;;5068893;28;20582;-94
2024/02/11 12:48:13;;;;;;;4.17;2.03;;;;;;;;;;5090263;28;20222;-94
2024/02/11 12:50:42;;;;;;;14.53;3.50;;;;;;;;;;5078737;28;20212;-90
2024/02/11 12:53:09;;;;;;;8.03;3.17;;;;;;;;;;5089601;28;20227;-94
2024/02/11 12:55:38;;;;;;;6.13;2.53;;;;;;;;;;5069721;28;20200;-95
2024/02/11 12:58:06;;;;;;;2.90;1.57;;;;;;;;;;5080380;28;20215;-94
2024/02/11 13:00:33;;;;;;;4.13;2.90;;;;;;;;;;5083140;28;20687;-95
2024/02/11 13:03:01;;;;;;;4.07;2.50;;;;;;;;;;5056181;28;20200;-95
2024/02/11 13:05:28;;;;;;;7.47;2.07;;;;;;;;;;5081723;28;20212;-94
2024/02/11 13:07:57;;;;;;;6.30;2.50;;;;;;;;;;5074201;28;20257;-94
2024/02/11 13:10:24;;;;;;;2.87;2.23;;;;;;;;;;5080647;28;20685;-95
2024/02/11 13:12:52;;;;;;;4.93;2.80;;;;;;;;;;5044929;28;20236;-95
2024/02/11 13:15:19;;;;;;;6.13;2.70;;;;;;;;;;5063646;28;20208;-94
2024/02/11 13:17:46;;;;;;;7.03;3.47;;;;;;;;;;5069665;28;20593;-95
2024/02/11 13:20:14;;;;;;;4.17;2.23;;;;;;;;;;5087358;28;20299;-93
2024/02/11 13:22:43;;;;;;;5.77;3.00;;;;;;;;;;5093283;28;20208;-95
2024/02/11 13:25:12;;;;;;;4.20;2.47;;;;;;;;;;5075435;28;20204;-95
2024/02/11 13:27:40;;;;;;;8.10;4.57;;;;;;;;;;5054943;28;20212;-95
2024/02/11 13:30:08;;;;;;;4.50;2.67;;;;;;;;;;5089457;28;20216;-94
2024/02/11 13:32:35;;;;;;;6.07;1.93;;;;;;;;;;5073726;28;20228;-94
2024/02/11 13:35:05;;;;;;;8.13;3.23;;;;;;;;;;5092862;28;20693;-93
2024/02/11 13:37:32;;;;;;;9.27;3.83;;;;;;;;;;5081492;28;20563;-95
2024/02/11 13:39:59;;;;;;;15.40;3.60;;;;;;;;;;5073389;28;20208;-94
2024/02/11 13:42:28;;;;;;;9.33;2.93;;;;;;;;;;5060793;28;20252;-95
2024/02/11 13:44:55;;;;;;;10.10;2.60;;;;;;;;;;5080220;28;20745;-95
2024/02/11 13:47:22;;;;;;;5.33;3.53;;;;;;;;;;5106149;28;20208;-94
2024/02/11 13:49:49;;;;;;;7.93;3.67;;;;;;;;;;5074929;28;20224;-94
2024/02/11 13:52:17;;;;;;;6.87;4.57;;;;;;;;;;5092091;28;20227;-95
2024/02/11 13:54:44;;;;;;;5.63;4.57;;;;;;;;;;5091703;28;20212;-94
2024/02/11 13:57:12;;;;;;;13.37;4.37;;;;;;;;;;5085326;28;20195;-94
2024/02/11 13:59:41;;;;;;;10.90;3.23;;;;;;;;;;5082106;28;20204;-96
2024/02/11 14:02:08;;;;;;;6.80;3.43;;;;;;;;;;5092573;28;20207;-95
2024/02/11 14:04:35;;;;;;;16.20;6.20;;;;;;;;;;5075011;28;20567;-95
2024/02/11 14:07:02;;;;;;;5.60;3.33;;;;;;;;;;5074539;28;20701;-95
2024/02/11 14:09:29;;;;;;;4.33;1.97;;;;;;;;;;5046709;28;20204;-94
2024/02/11 14:11:56;;;;;;;9.97;3.33;;;;;;;;;;5090069;28;20590;-93
2024/02/11 14:14:24;;;;;;;15.13;3.90;;;;;;;;;;5058211;28;20219;-95
2024/02/11 14:16:56;;;;;;;6.73;3.23;;;;;;;;;;5074738;28;20683;-93
2024/02/11 14:19:23;;;;;;;7.67;2.93;;;;;;;;;;5092624;28;20763;-95
2024/02/11 14:21:51;;;;;;;6.33;2.77;;;;;;;;;;5057942;28;20235;-95
2024/02/11 14:24:19;;;;;;;8.47;3.23;;;;;;;;;;5092472;28;20298;-95
2024/02/11 14:26:48;;;;;;;7.10;2.67;;;;;;;;;;5091246;28;20196;-95
2024/02/11 14:29:15;;;;;;;8.80;3.17;;;;;;;;;;5102093;28;20211;-95
2024/02/11 14:31:42;;;;;;;6.73;3.03;;;;;;;;;;5053390;28;20238;-95
2024/02/11 14:34:11;;;;;;;4.80;2.20;;;;;;;;;;5060029;28;20226;-94
2024/02/11 14:36:38;;;;;;;10.53;2.87;;;;;;;;;;5080776;28;20251;-93
2024/02/11 14:39:07;;;;;;;11.63;3.93;;;;;;;;;;5110846;28;20200;-93
2024/02/11 14:41:36;;;;;;;7.47;2.90;;;;;;;;;;5074807;28;20683;-94
2024/02/11 14:44:03;;;;;;;10.03;2.93;;;;;;;;;;5093726;28;20200;-92